EDDL/DUS METAR and TAF weather

Enter ICAO airport designator
Station Type Date Time Source
EDDL METAR 2022/11/30 10:50 UTC NOAA

EDDL 301050Z AUTO 35004KT 5000 BR BKN007 OVC011 06/06 Q1023 BECMG SCT006


Station Type Date Time Source
EDDL Decoded METAR 2022/11/30 10:50 UTC NOAA

Duesseldorf, Germany (EDDL) 51-18N 006-46E 41M
Nov 30, 2022 - 05:50 AM EST / 2022.11.30 1050 UTC
Wind: from the N (350 degrees) at 5 MPH (4 KT):0
Visibility: 3 mile(s):0
Sky conditions: overcast
Weather: mist
Temperature: 42 F (6 C)
Dew Point: 42 F (6 C)
Relative Humidity: 100%
Pressure (altimeter): 30.21 in. Hg (1023 hPa)
ob: EDDL 301050Z AUTO 35004KT 5000 BR BKN007 OVC011 06/06 Q1023 BECMG SCT006
cycle: 11

Station Type Date Time Source
EDDL TAF 2022/11/30 06:28 UTC NOAA

TAF EDDL 300500Z 3006/0112 36005KT 4000 BR BKN005
TEMPO 3006/3011 1400 BKN003
BECMG 3010/3013 7000 BKN012
TEMPO 3016/0110 3000 -DZRA BKN005 PROB30
TEMPO 3020/0104 1400 DZ BKN002

Example: see airport list